Time;durP1;ratioP1;P1;durP2;ratioP2;P2;SDS_P1;SDS_P2;PMS_P1;PMS_P2;Temp;Humidity;BMP_temperature;BMP_pressure;BME280_temperature;BME280_humidity;BME280_pressure;Samples;Min_cycle;Max_cycle;Signal;HPM_P1;HPM_P2
2023/09/18 00:00:25;;;;;;;17.55;15.73;;;16.80;99.90;;;;;;5064395;28;20571;-69
2023/09/18 00:02:50;;;;;;;18.08;16.17;;;16.80;99.90;;;;;;5032395;28;20102;-69
2023/09/18 00:05:16;;;;;;;19.08;17.08;;;16.80;99.90;;;;;;5075824;28;20037;-70
2023/09/18 00:07:45;;;;;;;20.35;17.05;;;16.80;99.90;;;;;;5058710;28;20408;-70
2023/09/18 00:10:12;;;;;;;19.70;16.58;;;16.80;99.90;;;;;;5063886;28;20108;-70
2023/09/18 00:12:38;;;;;;;19.27;16.88;;;16.80;99.90;;;;;;5047146;28;20131;-70
2023/09/18 00:15:05;;;;;;;19.42;16.98;;;16.80;99.90;;;;;;5045336;28;20098;-70
2023/09/18 00:17:31;;;;;;;20.38;17.50;;;16.80;99.90;;;;;;5048227;28;20136;-70
2023/09/18 00:19:57;;;;;;;17.88;15.98;;;16.80;99.90;;;;;;5067152;28;20091;-70
2023/09/18 00:22:24;;;;;;;22.65;16.80;;;16.80;99.90;;;;;;5042449;28;20045;-69
2023/09/18 00:24:50;;;;;;;21.17;17.50;;;16.80;99.90;;;;;;5059220;28;20049;-69
2023/09/18 00:27:16;;;;;;;23.00;17.95;;;16.80;99.90;;;;;;5068485;28;20150;-70
2023/09/18 00:29:42;;;;;;;27.02;18.05;;;16.80;99.90;;;;;;5057961;28;20044;-69
2023/09/18 00:32:08;;;;;;;19.20;16.77;;;16.70;99.90;;;;;;5046004;28;20374;-70
2023/09/18 00:34:34;;;;;;;18.80;16.77;;;16.70;99.90;;;;;;5031104;28;20087;-69
2023/09/18 00:37:00;;;;;;;18.65;16.00;;;16.70;99.90;;;;;;5065371;28;20824;-70
2023/09/18 00:39:26;;;;;;;21.15;17.08;;;16.70;99.90;;;;;;5040981;28;20135;-69
2023/09/18 00:41:54;;;;;;;20.35;16.35;;;16.70;99.90;;;;;;5067434;28;20059;-69
2023/09/18 00:44:21;;;;;;;17.75;15.82;;;16.70;99.90;;;;;;5050824;28;20051;-69
2023/09/18 00:46:48;;;;;;;19.10;15.95;;;16.70;99.90;;;;;;5051229;28;20144;-69
2023/09/18 00:49:14;;;;;;;21.38;16.55;;;16.70;99.90;;;;;;5065947;28;20044;-69
2023/09/18 00:51:40;;;;;;;16.55;14.75;;;16.70;99.90;;;;;;5062593;28;20559;-69
2023/09/18 00:54:08;;;;;;;20.02;15.90;;;16.70;99.90;;;;;;5065699;28;20056;-69
2023/09/18 00:56:34;;;;;;;20.27;17.23;;;16.70;99.90;;;;;;5049963;28;20049;-69
2023/09/18 00:59:02;;;;;;;19.38;15.68;;;16.70;99.90;;;;;;5065305;28;20509;-70
2023/09/18 01:01:29;;;;;;;22.02;16.33;;;16.70;99.90;;;;;;5051160;28;20074;-70
2023/09/18 01:03:56;;;;;;;21.42;16.00;;;16.70;99.90;;;;;;5065454;28;20036;-70
2023/09/18 01:06:27;;;;;;;18.27;15.85;;;16.70;99.90;;;;;;5044869;28;20040;-70
2023/09/18 01:08:54;;;;;;;;;;;16.70;99.90;;;;;;5048841;28;20044;-69
2023/09/18 01:11:30;;;;;;;19.42;16.30;;;16.70;99.90;;;;;;5050203;28;19925;-69
2023/09/18 01:14:08;;;;;;;21.17;17.00;;;16.70;99.90;;;;;;5063552;28;20173;-69
2023/09/18 01:16:49;;;;;;;20.00;16.85;;;16.70;99.90;;;;;;5067398;28;20064;-69
2023/09/18 01:19:15;;;;;;;20.80;16.90;;;16.80;99.90;;;;;;5067071;28;20422;-69
2023/09/18 01:21:41;;;;;;;22.77;17.45;;;16.70;99.90;;;;;;5049033;28;20063;-69
2023/09/18 01:24:07;;;;;;;19.77;15.45;;;16.80;99.90;;;;;;5061392;28;20055;-69
2023/09/18 01:26:32;;;;;;;21.08;16.20;;;16.70;99.90;;;;;;5046626;28;20593;-69
2023/09/18 01:28:58;;;;;;;21.55;17.48;;;16.80;99.90;;;;;;5064112;28;20109;-70
2023/09/18 01:31:26;;;;;;;24.13;18.67;;;16.80;99.90;;;;;;5049020;28;20044;-69
2023/09/18 01:33:53;;;;;;;21.75;17.92;;;16.80;99.90;;;;;;5046708;28;20048;-68
2023/09/18 01:36:20;;;;;;;27.80;19.73;;;16.70;99.90;;;;;;5039604;28;20048;-69
2023/09/18 01:38:46;;;;;;;21.83;18.40;;;16.80;99.90;;;;;;5064357;28;20405;-68
2023/09/18 01:41:12;;;;;;;22.95;19.08;;;16.80;99.90;;;;;;5066355;28;20052;-69
2023/09/18 01:43:38;;;;;;;21.02;17.35;;;16.80;99.90;;;;;;5046470;28;20048;-69
2023/09/18 01:46:05;;;;;;;21.55;17.95;;;16.70;99.90;;;;;;5062892;28;20047;-69
2023/09/18 01:48:30;;;;;;;24.02;18.45;;;16.80;99.90;;;;;;5066760;28;20107;-69
2023/09/18 01:50:56;;;;;;;22.52;18.40;;;16.80;99.90;;;;;;5062446;28;20155;-69
2023/09/18 01:53:22;;;;;;;25.35;19.92;;;16.80;99.90;;;;;;5064427;28;20045;-69
2023/09/18 01:55:48;;;;;;;23.92;20.33;;;16.80;99.90;;;;;;5050076;28;20060;-70
2023/09/18 01:58:14;;;;;;;21.52;18.67;;;16.80;99.90;;;;;;5047090;28;20059;-70
2023/09/18 02:00:40;;;;;;;23.13;19.95;;;16.80;99.90;;;;;;5048090;28;20056;-69
2023/09/18 02:03:05;;;;;;;24.42;20.58;;;16.80;99.90;;;;;;5063427;28;20137;-69
2023/09/18 02:05:32;;;;;;;26.33;21.98;;;16.80;99.90;;;;;;5065890;28;20052;-69
2023/09/18 02:07:58;;;;;;;25.98;21.48;;;16.70;99.90;;;;;;5046873;28;20045;-69
2023/09/18 02:10:24;;;;;;;28.85;23.52;;;16.80;99.90;;;;;;5065612;28;20037;-70
2023/09/18 02:12:50;;;;;;;29.52;22.73;;;16.80;99.90;;;;;;5063501;28;20056;-69
2023/09/18 02:15:16;;;;;;;25.95;22.98;;;16.80;99.90;;;;;;5062523;28;20774;-69
2023/09/18 02:17:42;;;;;;;29.25;24.60;;;16.80;99.90;;;;;;5064914;28;20060;-69
2023/09/18 02:20:11;;;;;;;29.33;24.80;;;16.80;99.90;;;;;;5064606;28;20079;-69
2023/09/18 02:22:39;;;;;;;30.70;23.92;;;16.80;99.90;;;;;;5048795;28;20056;-70
2023/09/18 02:25:06;;;;;;;27.33;22.95;;;16.80;99.90;;;;;;5065713;28;20578;-69
2023/09/18 02:27:31;;;;;;;29.70;23.13;;;16.80;99.90;;;;;;5064880;28;20580;-70
2023/09/18 02:30:00;;;;;;;28.08;23.23;;;16.80;99.90;;;;;;5058100;28;20040;-69
2023/09/18 02:32:26;;;;;;;29.13;25.13;;;16.80;99.90;;;;;;5057520;28;20401;-69
2023/09/18 02:34:52;;;;;;;29.70;25.83;;;16.80;99.90;;;;;;5043209;28;20046;-68
2023/09/18 02:37:17;;;;;;;26.90;22.85;;;16.80;99.90;;;;;;5047815;28;20054;-69
2023/09/18 02:39:43;;;;;;;27.25;24.15;;;16.80;99.90;;;;;;5048756;28;20052;-69
2023/09/18 02:42:09;;;;;;;32.33;25.48;;;16.90;99.90;;;;;;5048490;28;20109;-69
2023/09/18 02:44:35;;;;;;;29.75;25.08;;;16.80;99.90;;;;;;5065381;28;20048;-69
2023/09/18 02:47:01;;;;;;;31.02;26.05;;;16.80;99.90;;;;;;5048841;28;20048;-69
2023/09/18 02:49:26;;;;;;;29.67;25.80;;;16.80;99.90;;;;;;5044441;28;20814;-69
2023/09/18 02:51:52;;;;;;;29.20;26.05;;;16.90;99.90;;;;;;5098365;28;20049;-69
2023/09/18 02:54:18;;;;;;;31.63;25.60;;;16.90;99.90;;;;;;5044997;28;20048;-69
2023/09/18 02:56:44;;;;;;;29.83;25.45;;;16.90;99.90;;;;;;5051379;28;20802;-68
2023/09/18 02:59:09;;;;;;;31.50;25.83;;;16.90;99.90;;;;;;5048762;28;20045;-69
2023/09/18 03:01:35;;;;;;;33.92;27.35;;;16.90;99.90;;;;;;5067051;28;20478;-70
2023/09/18 03:04:01;;;;;;;33.55;28.92;;;16.90;99.90;;;;;;5044023;28;20048;-69
2023/09/18 03:06:27;;;;;;;33.40;28.40;;;16.90;99.90;;;;;;5078037;28;20040;-69
2023/09/18 03:08:52;;;;;;;36.45;27.77;;;16.90;99.90;;;;;;5062664;28;20046;-69
2023/09/18 03:11:18;;;;;;;33.25;27.35;;;16.90;99.90;;;;;;5063381;28;20051;-69
2023/09/18 03:13:46;;;;;;;31.40;27.80;;;16.90;99.90;;;;;;5028884;28;20080;-70
2023/09/18 03:16:15;;;;;;;32.75;26.42;;;16.90;99.90;;;;;;5045942;28;20044;-69
2023/09/18 03:18:40;;;;;;;32.63;24.90;;;16.90;99.90;;;;;;5049522;28;20126;-70
2023/09/18 03:21:06;;;;;;;28.55;25.33;;;16.90;99.90;;;;;;5064945;28;20053;-69
2023/09/18 03:23:32;;;;;;;27.67;24.55;;;17.00;99.90;;;;;;5048223;28;20052;-69
2023/09/18 03:25:59;;;;;;;27.95;24.77;;;16.90;99.90;;;;;;5061834;28;20083;-70
2023/09/18 03:28:25;;;;;;;27.60;24.60;;;17.00;99.90;;;;;;5058621;28;20076;-70
2023/09/18 03:30:50;;;;;;;27.98;23.83;;;16.90;99.90;;;;;;5048810;28;20129;-70
2023/09/18 03:33:17;;;;;;;33.00;24.83;;;17.00;99.90;;;;;;5063495;28;20505;-70
2023/09/18 03:35:50;;;;;;;30.80;23.27;;;17.00;99.90;;;;;;5063117;28;20054;-70
2023/09/18 03:38:16;;;;;;;32.47;23.00;;;17.00;99.90;;;;;;5052200;28;20046;-70
2023/09/18 03:40:44;;;;;;;30.95;24.20;;;17.00;99.90;;;;;;5048792;28;20063;-70
2023/09/18 03:43:11;;;;;;;29.92;24.25;;;17.00;99.90;;;;;;5063038;28;20440;-71
2023/09/18 03:45:39;;;;;;;26.40;23.65;;;17.00;99.90;;;;;;5061949;28;20052;-70
2023/09/18 03:48:04;;;;;;;27.52;23.52;;;17.00;99.90;;;;;;5041379;28;20067;-71
2023/09/18 03:50:30;;;;;;;24.60;21.92;;;17.00;99.90;;;;;;5047868;28;20509;-70
2023/09/18 03:52:56;;;;;;;33.00;23.15;;;17.00;99.90;;;;;;5058550;28;20588;-71
2023/09/18 03:55:22;;;;;;;29.60;23.13;;;17.00;99.90;;;;;;5062913;28;20049;-70
2023/09/18 03:57:48;;;;;;;29.38;22.92;;;17.10;99.90;;;;;;5047878;28;20044;-71
2023/09/18 04:00:15;;;;;;;27.15;22.52;;;17.00;99.90;;;;;;5040899;28;20049;-70
2023/09/18 04:02:40;;;;;;;28.25;24.00;;;17.10;99.90;;;;;;5064515;28;20059;-71
2023/09/18 04:05:07;;;;;;;27.55;23.83;;;17.10;99.90;;;;;;5045878;28;20048;-70
2023/09/18 04:07:33;;;;;;;27.15;22.80;;;17.10;99.90;;;;;;5058532;28;20045;-70
2023/09/18 04:09:58;;;;;;;25.88;22.58;;;17.10;99.90;;;;;;5064779;28;20074;-70
2023/09/18 04:12:25;;;;;;;31.65;23.95;;;17.10;99.90;;;;;;5066400;28;20052;-70
2023/09/18 04:14:51;;;;;;;26.88;22.95;;;17.10;99.90;;;;;;5047806;28;20052;-70
2023/09/18 04:17:17;;;;;;;28.65;22.58;;;17.10;99.90;;;;;;5055119;28;20462;-70
2023/09/18 04:19:45;;;;;;;26.70;21.25;;;17.10;99.90;;;;;;5060736;28;20668;-69
2023/09/18 04:22:13;;;;;;;28.85;22.17;;;17.10;99.90;;;;;;5041825;28;20040;-69
2023/09/18 04:24:39;;;;;;;27.45;21.08;;;17.10;99.90;;;;;;5064916;28;20055;-70
2023/09/18 04:27:04;;;;;;;26.55;22.40;;;17.10;99.90;;;;;;5055648;28;20131;-69
2023/09/18 04:29:30;;;;;;;26.38;21.45;;;17.10;99.90;;;;;;5055632;28;20045;-70
2023/09/18 04:31:57;;;;;;;23.35;20.23;;;17.10;99.90;;;;;;5056937;28;20060;-70
2023/09/18 04:34:23;;;;;;;23.92;20.95;;;17.20;99.90;;;;;;5064389;28;20043;-70
2023/09/18 04:36:49;;;;;;;25.08;20.98;;;17.20;99.90;;;;;;5064215;28;20049;-69
2023/09/18 04:39:15;;;;;;;26.83;21.35;;;17.10;99.90;;;;;;5059666;28;20156;-70
2023/09/18 04:41:41;;;;;;;25.00;21.48;;;17.10;99.90;;;;;;5049996;28;20053;-70
2023/09/18 04:44:07;;;;;;;24.73;20.77;;;17.10;99.90;;;;;;5057038;28;20067;-70
2023/09/18 04:46:35;;;;;;;22.13;19.73;;;17.10;99.90;;;;;;5047578;28;20060;-70
2023/09/18 04:49:00;;;;;;;24.70;21.08;;;17.20;99.90;;;;;;5034445;28;20461;-70
2023/09/18 04:51:26;;;;;;;24.40;21.65;;;17.10;99.90;;;;;;5053564;28;20044;-69
2023/09/18 04:53:52;;;;;;;23.65;20.92;;;17.10;99.90;;;;;;5056762;28;20394;-70
2023/09/18 04:56:18;;;;;;;25.17;20.35;;;17.10;99.90;;;;;;5041624;28;20060;-69
2023/09/18 04:58:43;;;;;;;22.33;20.00;;;17.10;99.90;;;;;;5048005;28;20494;-69
2023/09/18 05:01:11;;;;;;;28.48;21.13;;;17.20;99.90;;;;;;5061077;28;20065;-69
2023/09/18 05:03:37;;;;;;;26.08;20.70;;;17.20;99.90;;;;;;5051836;28;20053;-69
2023/09/18 05:06:04;;;;;;;27.63;20.55;;;17.20;99.90;;;;;;5056916;28;20222;-70
2023/09/18 05:08:29;;;;;;;26.52;20.85;;;17.20;99.90;;;;;;5035515;28;20058;-69
2023/09/18 05:10:55;;;;;;;25.73;20.13;;;17.20;99.90;;;;;;5046584;28;20057;-69
2023/09/18 05:13:21;;;;;;;24.85;20.10;;;17.20;99.90;;;;;;5045212;28;20048;-70
2023/09/18 05:15:47;;;;;;;20.65;18.30;;;17.20;99.90;;;;;;5045438;28;20052;-69
2023/09/18 05:18:13;;;;;;;26.55;20.20;;;17.20;99.90;;;;;;5045608;28;20045;-69
2023/09/18 05:20:40;;;;;;;24.23;19.08;;;17.30;99.90;;;;;;5045685;28;20044;-69
2023/09/18 05:23:06;;;;;;;22.67;18.92;;;17.30;99.90;;;;;;5060634;28;21619;-69
2023/09/18 05:25:32;;;;;;;19.52;17.30;;;17.30;99.90;;;;;;5035326;28;20048;-70
2023/09/18 05:27:59;;;;;;;23.35;18.55;;;17.30;99.90;;;;;;5044168;28;20082;-69
2023/09/18 05:30:32;;;;;;;23.52;19.23;;;17.30;99.90;;;;;;5044158;28;20488;-69
2023/09/18 05:33:04;;;;;;;22.63;17.58;;;17.30;99.90;;;;;;5076529;28;20060;-71
2023/09/18 05:35:36;;;;;;;22.90;18.90;;;17.30;99.90;;;;;;5051227;28;20408;-69
2023/09/18 05:38:05;;;;;;;23.27;17.83;;;17.30;99.90;;;;;;5056625;28;20409;-70
2023/09/18 05:40:32;;;;;;;20.75;16.75;;;17.40;99.90;;;;;;5049813;28;20059;-69
2023/09/18 05:42:58;;;;;;;22.90;16.80;;;17.40;99.90;;;;;;5054929;28;20476;-69
2023/09/18 05:45:24;;;;;;;23.35;17.25;;;17.40;99.90;;;;;;5044412;28;20048;-70
2023/09/18 05:47:50;;;;;;;19.50;15.95;;;17.40;99.90;;;;;;5043684;28;20181;-69
2023/09/18 05:50:16;;;;;;;20.50;15.52;;;17.40;99.90;;;;;;5048418;28;20047;-69
2023/09/18 05:52:44;;;;;;;21.63;15.50;;;17.40;99.90;;;;;;5056839;28;20045;-69
2023/09/18 05:55:10;;;;;;;19.05;14.63;;;17.40;99.90;;;;;;5073404;28;20040;-69
2023/09/18 05:57:36;;;;;;;19.17;14.32;;;17.40;99.90;;;;;;5054825;28;20564;-69
2023/09/18 06:00:02;;;;;;;18.20;13.90;;;17.50;99.90;;;;;;5042911;28;20040;-70
2023/09/18 06:02:28;;;;;;;18.98;13.15;;;17.50;99.90;;;;;;5049082;28;20048;-70
2023/09/18 06:05:01;;;;;;;20.70;12.95;;;17.50;99.90;;;;;;5037584;28;20116;-70
2023/09/18 06:07:27;;;;;;;19.60;13.02;;;17.50;99.90;;;;;;5035141;28;20743;-69
2023/09/18 06:09:53;;;;;;;18.58;12.88;;;17.60;99.90;;;;;;5048624;28;20037;-70
2023/09/18 06:12:20;;;;;;;16.63;12.63;;;17.60;99.90;;;;;;5034226;28;20696;-69
2023/09/18 06:14:48;;;;;;;20.73;11.70;;;17.60;99.90;;;;;;5077680;27;20119;-70
2023/09/18 06:17:14;;;;;;;17.27;12.45;;;17.60;99.90;;;;;;5049816;28;20040;-70
2023/09/18 06:19:41;;;;;;;15.00;12.05;;;17.70;99.90;;;;;;5067251;28;20166;-69
2023/09/18 06:22:07;;;;;;;16.17;11.10;;;17.70;99.90;;;;;;5053897;28;20048;-70
2023/09/18 06:24:34;;;;;;;18.42;12.85;;;17.70;99.90;;;;;;5053557;28;20044;-70
2023/09/18 06:27:00;;;;;;;18.30;11.68;;;17.70;99.90;;;;;;5055780;28;20040;-69
2023/09/18 06:29:26;;;;;;;13.90;11.35;;;17.70;99.90;;;;;;5052842;28;20141;-71
2023/09/18 06:31:52;;;;;;;15.57;11.20;;;17.70;99.90;;;;;;5057280;28;20056;-70
2023/09/18 06:34:17;;;;;;;20.20;11.70;;;17.80;99.90;;;;;;5044392;28;20047;-70
2023/09/18 06:36:43;;;;;;;20.60;11.73;;;17.80;99.90;;;;;;5055697;28;20049;-69
2023/09/18 06:39:09;;;;;;;15.55;11.35;;;17.80;99.90;;;;;;5041681;28;20049;-69
2023/09/18 06:41:35;;;;;;;21.50;12.05;;;17.90;99.90;;;;;;5049668;28;20061;-69
2023/09/18 06:44:03;;;;;;;19.30;11.55;;;17.90;99.90;;;;;;5046524;28;20040;-70
2023/09/18 06:46:29;;;;;;;19.45;12.20;;;18.00;99.90;;;;;;5064193;28;20040;-69
2023/09/18 06:48:56;;;;;;;17.85;12.18;;;18.00;99.90;;;;;;5065511;28;20070;-69
2023/09/18 06:51:23;;;;;;;18.70;12.35;;;18.00;99.90;;;;;;5047385;28;20461;-70
2023/09/18 06:53:49;;;;;;;19.08;13.20;;;18.00;99.90;;;;;;5032488;28;20133;-66
2023/09/18 06:56:14;;;;;;;21.63;13.88;;;18.00;99.90;;;;;;5066560;28;20040;-66
2023/09/18 06:58:40;;;;;;;20.73;14.20;;;18.10;99.90;;;;;;5055547;28;20076;-66
2023/09/18 07:01:06;;;;;;;17.60;13.23;;;18.10;99.90;;;;;;5057659;28;20046;-66
2023/09/18 07:03:35;;;;;;;17.35;13.32;;;18.10;99.90;;;;;;5049624;28;20037;-66
2023/09/18 07:06:01;;;;;;;16.50;12.68;;;18.10;99.90;;;;;;5043985;28;20063;-66
2023/09/18 07:08:26;;;;;;;18.55;13.73;;;18.10;99.90;;;;;;5023312;28;20048;-67
2023/09/18 07:10:52;;;;;;;19.10;12.85;;;18.10;99.90;;;;;;5025387;28;20052;-67
2023/09/18 07:13:18;;;;;;;19.00;13.38;;;18.20;99.90;;;;;;5045267;28;20039;-66
2023/09/18 07:15:44;;;;;;;19.98;14.02;;;18.20;99.90;;;;;;5025853;28;20044;-66
2023/09/18 07:18:14;;;;;;;18.52;13.80;;;18.20;99.90;;;;;;5030556;28;20059;-66
2023/09/18 07:20:44;;;;;;;22.17;14.35;;;18.20;99.90;;;;;;5051761;28;20461;-66
2023/09/18 07:23:09;;;;;;;22.65;14.75;;;18.20;99.90;;;;;;5050784;28;20044;-66
2023/09/18 07:25:38;;;;;;;21.20;14.80;;;18.20;99.90;;;;;;5042840;28;20564;-66
2023/09/18 07:28:06;;;;;;;20.95;14.43;;;18.30;99.90;;;;;;5042856;28;20144;-66
2023/09/18 07:30:32;;;;;;;27.35;15.38;;;18.30;99.90;;;;;;5032399;28;20056;-66
2023/09/18 07:32:57;;;;;;;20.02;13.70;;;18.30;99.90;;;;;;5057056;28;20074;-66
2023/09/18 07:35:27;;;;;;;20.15;14.35;;;18.30;99.90;;;;;;5056974;28;20045;-67
2023/09/18 07:37:55;;;;;;;25.15;14.93;;;18.40;99.90;;;;;;5050336;28;20132;-67
2023/09/18 07:40:22;;;;;;;21.45;13.95;;;18.40;99.90;;;;;;5043275;28;20564;-71
2023/09/18 07:42:47;;;;;;;22.92;14.10;;;18.40;99.90;;;;;;5051733;28;20428;-70
2023/09/18 07:45:13;;;;;;;20.40;14.07;;;18.40;99.90;;;;;;5047659;28;20052;-71
2023/09/18 07:47:39;;;;;;;23.50;15.10;;;18.40;99.90;;;;;;5028626;28;20110;-71
2023/09/18 07:50:06;;;;;;;22.67;14.27;;;18.40;99.90;;;;;;5033810;28;20052;-72
2023/09/18 07:52:32;;;;;;;18.80;13.60;;;18.40;99.90;;;;;;5051747;28;20056;-70
2023/09/18 07:54:59;;;;;;;21.13;14.65;;;18.40;99.90;;;;;;5053716;28;20481;-72
2023/09/18 07:57:27;;;;;;;20.48;14.50;;;18.40;99.90;;;;;;5031557;28;20052;-69
2023/09/18 07:59:53;;;;;;;16.77;12.95;;;18.40;99.90;;;;;;5054107;28;20097;-70
2023/09/18 08:02:21;;;;;;;16.38;13.10;;;18.40;99.90;;;;;;5036176;28;20730;-70
2023/09/18 08:04:47;;;;;;;21.33;13.77;;;18.40;99.90;;;;;;5050650;28;20091;-69
2023/09/18 08:07:13;;;;;;;15.63;12.65;;;18.40;99.90;;;;;;5048796;28;20063;-70
2023/09/18 08:09:39;;;;;;;15.88;12.73;;;18.40;99.90;;;;;;5039455;28;20210;-70
2023/09/18 08:12:06;;;;;;;16.63;11.07;;;18.40;99.90;;;;;;5057259;28;20040;-70
2023/09/18 08:14:34;;;;;;;14.70;10.45;;;18.40;99.90;;;;;;5035049;28;20226;-71
2023/09/18 08:17:01;;;;;;;15.95;10.27;;;18.40;99.90;;;;;;5031211;28;20048;-71
2023/09/18 08:19:27;;;;;;;15.20;10.05;;;18.50;99.90;;;;;;5044630;28;20049;-70
2023/09/18 08:21:54;;;;;;;19.42;10.98;;;18.50;99.90;;;;;;5028852;28;20078;-66
2023/09/18 08:24:21;;;;;;;16.83;10.88;;;18.50;99.90;;;;;;5030767;28;20771;-65
2023/09/18 08:26:47;;;;;;;18.95;11.52;;;18.50;99.90;;;;;;5039144;28;20048;-69
2023/09/18 08:29:13;;;;;;;16.33;11.30;;;18.50;99.90;;;;;;5031879;28;20141;-70
2023/09/18 08:31:39;;;;;;;17.48;12.63;;;18.50;99.90;;;;;;5045529;28;20055;-70
2023/09/18 08:34:04;;;;;;;18.77;12.15;;;18.50;99.90;;;;;;5075380;28;20048;-70
2023/09/18 08:36:31;;;;;;;16.75;11.77;;;18.50;99.90;;;;;;5027408;28;20921;-69
2023/09/18 08:38:57;;;;;;;17.83;11.73;;;18.50;99.90;;;;;;5037161;28;20460;-69
2023/09/18 08:41:27;;;;;;;17.27;11.70;;;18.50;99.90;;;;;;5036729;28;20133;-71
2023/09/18 08:43:59;;;;;;;18.27;12.05;;;18.50;99.90;;;;;;5039845;28;20513;-69
2023/09/18 08:46:25;;;;;;;19.33;12.57;;;18.60;99.90;;;;;;5056115;28;20116;-71
2023/09/18 08:48:52;;;;;;;20.35;13.32;;;18.50;99.90;;;;;;5034673;28;20151;-71
2023/09/18 08:51:18;;;;;;;19.25;12.27;;;18.60;99.90;;;;;;5047921;28;20647;-72
2023/09/18 08:53:45;;;;;;;19.73;13.65;;;18.60;99.90;;;;;;5029750;28;20059;-71
2023/09/18 08:56:13;;;;;;;19.30;13.80;;;18.60;99.90;;;;;;5044193;28;20049;-72
2023/09/18 08:58:42;;;;;;;21.50;14.25;;;18.70;99.90;;;;;;5041104;28;20041;-71
2023/09/18 09:01:12;;;;;;;18.92;13.23;;;18.70;99.90;;;;;;5044508;28;20040;-70
2023/09/18 09:03:39;;;;;;;18.70;13.57;;;18.70;99.90;;;;;;5057325;28;20086;-72
2023/09/18 09:06:06;;;;;;;16.70;12.57;;;18.70;99.90;;;;;;5051268;28;20093;-72
2023/09/18 09:08:33;;;;;;;19.08;13.38;;;18.70;99.90;;;;;;5029506;28;20086;-66
2023/09/18 09:10:59;;;;;;;19.92;13.48;;;18.70;99.90;;;;;;5031708;28;20036;-67
2023/09/18 09:13:28;;;;;;;21.20;14.38;;;18.70;99.90;;;;;;5032416;28;20059;-70
2023/09/18 09:15:56;;;;;;;23.08;14.35;;;18.80;99.90;;;;;;5044839;28;20051;-72
2023/09/18 09:18:27;;;;;;;21.85;14.38;;;18.80;99.90;;;;;;5082932;28;20056;-71
2023/09/18 09:21:01;;;;;;;;;;;18.80;99.90;;;;;;5041856;28;20136;-71
2023/09/18 09:23:28;;;;;;;20.98;14.52;;;18.80;99.90;;;;;;5051229;28;19924;-71
2023/09/18 09:26:12;;;;;;;20.50;13.88;;;18.90;99.90;;;;;;5049689;28;20064;-71
2023/09/18 09:28:38;;;;;;;18.13;13.90;;;18.90;99.90;;;;;;5032508;28;20053;-71
2023/09/18 09:31:03;;;;;;;17.20;13.98;;;18.90;99.90;;;;;;5052779;28;20071;-71
2023/09/18 09:33:30;;;;;;;20.23;14.50;;;18.90;99.90;;;;;;5039943;28;20048;-71
2023/09/18 09:35:57;;;;;;;21.00;14.30;;;19.00;99.90;;;;;;5055092;28;20043;-70
2023/09/18 09:38:33;;;;;;;17.13;12.63;;;19.00;99.90;;;;;;5061512;28;20047;-72
2023/09/18 09:41:06;;;;;;;19.30;12.85;;;19.10;99.90;;;;;;5050312;28;20048;-71
2023/09/18 09:43:32;;;;;;;18.83;12.98;;;19.10;99.90;;;;;;5057912;28;20048;-71
2023/09/18 09:46:00;;;;;;;19.23;12.00;;;19.10;99.90;;;;;;5059420;28;20095;-71
2023/09/18 09:48:26;;;;;;;18.27;11.98;;;19.10;99.90;;;;;;5040191;28;20395;-70
2023/09/18 09:50:53;;;;;;;19.42;11.50;;;19.20;99.90;;;;;;5060605;28;20056;-70
2023/09/18 09:53:19;;;;;;;16.33;11.73;;;19.20;99.90;;;;;;5057329;28;20067;-71
2023/09/18 09:55:45;;;;;;;16.65;11.68;;;19.20;99.90;;;;;;5040925;28;20048;-71
2023/09/18 09:58:11;;;;;;;16.90;12.88;;;19.30;99.90;;;;;;5046803;28;20167;-71
2023/09/18 10:00:47;;;;;;;17.85;13.50;;;19.30;99.90;;;;;;5046286;28;20049;-70
2023/09/18 10:03:15;;;;;;;18.65;13.77;;;19.30;99.90;;;;;;5041672;28;20077;-71
2023/09/18 10:05:43;;;;;;;16.45;12.95;;;19.30;99.90;;;;;;5063612;28;20056;-71
2023/09/18 10:08:16;;;;;;;17.20;14.07;;;19.30;99.90;;;;;;5058573;28;20473;-71
2023/09/18 10:11:06;;;;;;;19.02;14.25;;;19.40;99.90;;;;;;5062713;28;20392;-71
2023/09/18 10:13:41;;;;;;;20.27;14.80;;;19.40;99.90;;;;;;5033303;28;21689;-71
2023/09/18 10:16:10;;;;;;;17.67;14.38;;;19.50;99.90;;;;;;5061518;28;20202;-71
2023/09/18 10:18:42;;;;;;;22.48;15.38;;;19.50;99.90;;;;;;5064189;28;20052;-71
2023/09/18 10:21:24;;;;;;;20.42;17.15;;;19.50;99.90;;;;;;5055007;28;20076;-71
2023/09/18 10:24:02;;;;;;;22.00;15.70;;;19.60;99.90;;;;;;5041227;28;20051;-71
2023/09/18 10:26:29;;;;;;;21.75;15.52;;;19.70;99.90;;;;;;5052965;28;20059;-71
2023/09/18 10:28:59;;;;;;;18.98;15.32;;;19.70;99.90;;;;;;5063164;28;20936;-70
2023/09/18 10:31:29;;;;;;;16.80;15.00;;;19.80;99.90;;;;;;5062848;28;20048;-70
2023/09/18 10:33:59;;;;;;;18.30;14.02;;;19.80;99.90;;;;;;5061138;28;20137;-70
2023/09/18 10:36:26;;;;;;;17.70;13.97;;;19.80;99.90;;;;;;5042041;28;20055;-71
2023/09/18 10:38:55;;;;;;;16.80;13.02;;;19.80;99.90;;;;;;5051658;28;20102;-71
2023/09/18 10:41:21;;;;;;;15.20;12.52;;;19.80;99.90;;;;;;5036049;28;20092;-71
2023/09/18 10:43:49;;;;;;;15.57;12.52;;;19.80;99.90;;;;;;5063804;28;20052;-69
2023/09/18 10:46:14;;;;;;;17.73;12.60;;;19.90;99.90;;;;;;5063850;28;20644;-71
2023/09/18 10:48:43;;;;;;;15.80;11.98;;;20.00;99.90;;;;;;5036265;28;20046;-70
2023/09/18 10:51:10;;;;;;;15.13;10.60;;;20.00;99.90;;;;;;5059739;28;20085;-71
2023/09/18 10:53:36;;;;;;;12.35;10.13;;;20.10;99.90;;;;;;5055066;28;20045;-71
2023/09/18 10:56:05;;;;;;;13.48;9.63;;;20.10;99.90;;;;;;5033566;28;20543;-70
2023/09/18 10:58:35;;;;;;;13.52;8.80;;;20.20;99.90;;;;;;5056112;28;20037;-70
2023/09/18 11:01:04;;;;;;;10.90;8.38;;;20.40;99.90;;;;;;5042390;28;20048;-70
2023/09/18 11:03:33;;;;;;;12.25;7.45;;;20.40;99.90;;;;;;5077998;28;20052;-70
2023/09/18 11:06:07;;;;;;;13.27;8.57;;;20.50;99.90;;;;;;5062088;28;20052;-71
2023/09/18 11:08:43;;;;;;;12.50;7.47;;;20.50;99.90;;;;;;5035374;28;20122;-69
2023/09/18 11:11:11;;;;;;;9.20;6.85;;;20.50;99.90;;;;;;5070103;28;20159;-70
2023/09/18 11:13:43;;;;;;;10.85;7.05;;;20.50;99.90;;;;;;5052166;28;20049;-70
2023/09/18 11:16:27;;;;;;;9.15;6.55;;;20.50;99.90;;;;;;5054865;28;20059;-71
2023/09/18 11:19:05;;;;;;;10.68;5.68;;;20.60;99.90;;;;;;5036154;28;20454;-71
2023/09/18 11:21:34;;;;;;;11.32;6.20;;;20.60;99.90;;;;;;5037552;28;20115;-70
2023/09/18 11:24:02;;;;;;;8.95;5.50;;;20.70;99.90;;;;;;5040667;28;20190;-70
2023/09/18 11:26:35;;;;;;;9.63;5.75;;;20.80;99.90;;;;;;5049063;28;20123;-70
2023/09/18 11:29:06;;;;;;;8.25;5.80;;;20.80;99.90;;;;;;5047685;28;20041;-70
2023/09/18 11:31:58;;;;;;;11.18;4.90;;;20.80;99.90;;;;;;5057279;28;20686;-70
2023/09/18 11:34:31;;;;;;;7.72;5.20;;;20.90;99.90;;;;;;5057526;28;20064;-71
2023/09/18 11:37:02;;;;;;;10.45;5.22;;;20.90;99.90;;;;;;5072351;28;20052;-69
2023/09/18 11:39:39;;;;;;;10.05;5.70;;;20.90;99.90;;;;;;5070799;28;20155;-70
2023/09/18 11:42:22;;;;;;;8.63;5.25;;;20.90;99.90;;;;;;5045767;28;20056;-70
2023/09/18 11:44:49;;;;;;;8.25;5.03;;;20.90;99.90;;;;;;5071133;28;20106;-72
2023/09/18 11:47:19;;;;;;;8.05;5.10;;;20.90;99.90;;;;;;5051827;28;20052;-70
2023/09/18 11:49:59;;;;;;;7.80;4.57;;;21.00;99.90;;;;;;5062356;28;20045;-71
2023/09/18 11:52:28;;;;;;;8.48;4.40;;;21.00;99.90;;;;;;5055316;28;20079;-70
2023/09/18 11:54:56;;;;;;;6.97;3.65;;;21.10;99.90;;;;;;5067685;28;20416;-68
2023/09/18 11:57:23;;;;;;;6.60;4.00;;;21.20;99.90;;;;;;5064402;28;20453;-69
2023/09/18 11:59:50;;;;;;;6.97;3.90;;;21.30;99.90;;;;;;5045173;28;20049;-69
2023/09/18 12:02:45;;;;;;;8.68;3.78;;;21.30;99.90;;;;;;5063463;28;20048;-69
2023/09/18 12:05:15;;;;;;;7.57;3.83;;;21.30;99.90;;;;;;5042891;28;20041;-69
2023/09/18 12:07:45;;;;;;;9.80;4.03;;;21.30;99.90;;;;;;5053003;28;20187;-69
2023/09/18 12:10:15;;;;;;;7.27;4.10;;;21.30;99.90;;;;;;5051374;28;20048;-68
2023/09/18 12:12:45;;;;;;;8.80;4.07;;;21.40;99.90;;;;;;5065622;28;20186;-69
2023/09/18 12:15:11;;;;;;;;;;;21.40;99.90;;;;;;5064694;28;20052;-70
2023/09/18 12:17:37;;;;;;;10.30;3.83;;;21.40;99.90;;;;;;5048145;28;20092;-69
2023/09/18 12:20:05;;;;;;;8.52;4.63;;;21.50;99.90;;;;;;5060105;28;20154;-70
2023/09/18 12:22:33;;;;;;;8.27;4.75;;;21.40;99.90;;;;;;5050247;28;20048;-69
2023/09/18 12:25:13;;;;;;;10.93;4.15;;;21.40;99.90;;;;;;5061559;28;20052;-70
2023/09/18 12:27:40;;;;;;;6.88;3.97;;;21.40;99.90;;;;;;5062290;28;20722;-69
2023/09/18 12:30:07;;;;;;;8.32;4.10;;;21.40;99.90;;;;;;5065489;28;20133;-69
2023/09/18 12:32:36;;;;;;;10.25;3.95;;;21.40;99.90;;;;;;5048015;28;20055;-70